createdAt,value
2022-08-23T00:00:13.311Z,90.41
2022-08-23T00:01:12.004Z,90.51
2022-08-23T00:02:23.590Z,90.00
2022-08-23T00:03:13.062Z,90.31
2022-08-23T00:04:11.952Z,91.02
2022-08-23T00:05:11.961Z,90.75
2022-08-23T00:06:11.936Z,90.75
2022-08-23T00:07:11.935Z,91.43
2022-08-23T00:08:11.949Z,91.33
2022-08-23T00:09:11.906Z,91.12
2022-08-23T00:10:11.888Z,91.16
2022-08-23T00:11:11.876Z,90.04
2022-08-23T00:12:11.870Z,90.31
2022-08-23T00:13:11.946Z,90.10
2022-08-23T00:14:11.844Z,90.20
2022-08-23T00:15:11.892Z,90.10
2022-08-23T00:16:11.826Z,90.31
2022-08-23T00:17:11.811Z,90.41
2022-08-23T00:18:12.912Z,90.31
2022-08-23T00:19:11.793Z,90.51
2022-08-23T00:20:11.806Z,90.96
2022-08-23T00:21:11.778Z,91.53
2022-08-23T00:22:11.765Z,92.29
2022-08-23T00:23:11.758Z,92.08
2022-08-23T00:24:11.756Z,91.06
2022-08-23T00:25:11.740Z,91.27
2022-08-23T00:26:11.716Z,92.08
2022-08-23T00:27:11.706Z,92.29
2022-08-23T00:28:14.732Z,92.33
2022-08-23T00:29:11.692Z,91.88
2022-08-23T00:30:11.691Z,92.33
2022-08-23T00:31:11.669Z,92.13
2022-08-23T00:32:11.655Z,92.54
2022-08-23T00:33:11.643Z,92.64
2022-08-23T00:34:11.636Z,92.54
2022-08-23T00:35:11.627Z,92.33
2022-08-23T00:36:11.619Z,92.13
2022-08-23T00:37:11.640Z,92.33
2022-08-23T00:38:32.382Z,92.23
2022-08-23T00:39:12.582Z,92.02
2022-08-23T00:40:11.637Z,92.54
2022-08-23T00:41:11.667Z,92.33
2022-08-23T00:42:11.547Z,92.13
2022-08-23T00:43:11.537Z,91.61
2022-08-23T00:44:11.523Z,90.86
2022-08-23T00:45:11.550Z,91.98
2022-08-23T00:46:11.501Z,91.31
2022-08-23T00:47:11.510Z,92.02
2022-08-23T00:48:11.477Z,92.33
2022-08-23T00:49:11.476Z,91.92
2022-08-23T00:50:23.445Z,91.92
2022-08-23T00:51:12.459Z,92.13
2022-08-23T00:52:11.488Z,92.02
2022-08-23T00:53:11.437Z,92.33
2022-08-23T00:54:11.426Z,92.23
2022-08-23T00:55:11.405Z,92.13
2022-08-23T00:56:11.389Z,92.54
2022-08-23T00:57:11.420Z,92.33
2022-08-23T00:58:11.372Z,92.37
2022-08-23T00:59:11.384Z,92.02
2022-08-23T01:00:11.347Z,92.23
2022-08-23T01:01:11.382Z,91.46
2022-08-23T01:02:11.489Z,91.92
2022-08-23T01:03:11.317Z,92.37
2022-08-23T01:04:11.308Z,92.17
2022-08-23T01:05:11.311Z,92.13
2022-08-23T01:06:11.287Z,91.92
2022-08-23T01:07:11.274Z,92.27
2022-08-23T01:08:11.280Z,92.07
2022-08-23T01:09:11.261Z,92.07
2022-08-23T01:10:13.233Z,92.27
2022-08-23T01:11:12.237Z,92.07
2022-08-23T01:12:11.235Z,92.58
2022-08-23T01:13:11.218Z,92.27
2022-08-23T01:14:11.201Z,92.58
2022-08-23T01:15:11.239Z,92.78
2022-08-23T01:16:11.184Z,93.40
2022-08-23T01:17:11.171Z,93.09
2022-08-23T01:18:11.158Z,92.37
2022-08-23T01:19:11.167Z,92.17
2022-08-23T01:20:11.144Z,92.68
2022-08-23T01:21:11.123Z,92.58
2022-08-23T01:22:11.111Z,92.58
2022-08-23T01:23:11.155Z,92.37
2022-08-23T01:24:19.089Z,92.68
2022-08-23T01:25:12.078Z,92.47
2022-08-23T01:26:11.075Z,92.68
2022-08-23T01:27:11.066Z,93.40
2022-08-23T01:28:11.058Z,92.88
2022-08-23T01:29:11.045Z,92.42
2022-08-23T01:30:11.050Z,92.78
2022-08-23T01:31:11.017Z,92.68
2022-08-23T01:32:10.998Z,93.29
2022-08-23T01:33:10.996Z,92.58
2022-08-23T01:34:10.999Z,92.78
2022-08-23T01:35:10.981Z,93.13
2022-08-23T01:36:10.953Z,92.68
2022-08-23T01:37:10.948Z,92.47
2022-08-23T01:38:10.944Z,93.09
2022-08-23T01:39:10.942Z,92.72
2022-08-23T01:40:11.094Z,92.62
2022-08-23T01:41:10.902Z,92.37
2022-08-23T01:42:10.892Z,92.78
2022-08-23T01:43:10.889Z,92.72
2022-08-23T01:44:10.871Z,92.88
2022-08-23T01:45:10.879Z,92.83
2022-08-23T01:46:10.858Z,93.19
2022-08-23T01:47:10.833Z,92.72
2022-08-23T01:48:10.826Z,92.68
2022-08-23T01:49:10.820Z,92.42
2022-08-23T01:50:10.805Z,92.47
2022-08-23T01:51:10.809Z,93.03
2022-08-23T01:52:10.868Z,93.33
2022-08-23T01:53:10.779Z,93.74
2022-08-23T01:54:10.758Z,93.95
2022-08-23T01:55:10.802Z,92.83
2022-08-23T01:56:10.743Z,92.83
2022-08-23T01:57:10.752Z,93.13
2022-08-23T01:58:10.727Z,92.01
2022-08-23T01:59:10.711Z,92.11
2022-08-23T02:00:10.723Z,92.11
2022-08-23T02:01:10.689Z,92.78
2022-08-23T02:02:10.679Z,92.52
2022-08-23T02:03:10.693Z,92.83
2022-08-23T02:04:10.648Z,92.62
2022-08-23T02:05:10.652Z,92.32
2022-08-23T02:06:10.638Z,92.62
2022-08-23T02:07:10.648Z,92.05
2022-08-23T02:08:10.615Z,92.42
2022-08-23T02:09:17.159Z,92.66
2022-08-23T02:10:11.635Z,92.62
2022-08-23T02:11:10.580Z,92.42
2022-08-23T02:12:10.565Z,92.83
2022-08-23T02:13:10.558Z,92.42
2022-08-23T02:14:10.549Z,92.42
2022-08-23T02:15:10.536Z,93.48
2022-08-23T02:16:10.538Z,93.59
2022-08-23T02:17:10.511Z,92.46
2022-08-23T02:18:10.512Z,92.56
2022-08-23T02:19:10.488Z,92.36
2022-08-23T02:20:10.494Z,92.56
2022-08-23T02:21:10.538Z,93.59
2022-08-23T02:22:10.481Z,93.65
2022-08-23T02:23:10.498Z,93.28
2022-08-23T02:24:10.462Z,93.48
2022-08-23T02:25:10.432Z,93.28
2022-08-23T02:26:10.420Z,93.48
2022-08-23T02:27:10.407Z,92.77
2022-08-23T02:28:10.393Z,93.69
2022-08-23T02:29:10.377Z,93.28
2022-08-23T02:30:10.377Z,93.48
2022-08-23T02:31:10.370Z,93.59
2022-08-23T02:32:10.345Z,93.69
2022-08-23T02:33:10.349Z,93.79
2022-08-23T02:34:10.325Z,93.99
2022-08-23T02:35:10.310Z,93.99
2022-08-23T02:36:10.328Z,93.99
2022-08-23T02:37:10.312Z,93.99
2022-08-23T02:38:10.283Z,93.89
2022-08-23T02:39:10.273Z,93.79
2022-08-23T02:40:10.390Z,93.59
2022-08-23T02:41:10.254Z,93.48
2022-08-23T02:42:11.511Z,93.48
2022-08-23T02:43:10.227Z,93.69
2022-08-23T02:44:10.228Z,93.79
2022-08-23T02:45:10.214Z,94.10
2022-08-23T02:46:10.194Z,93.73
2022-08-23T02:47:10.191Z,93.59
2022-08-23T02:48:10.183Z,93.38
2022-08-23T02:49:10.218Z,93.59
2022-08-23T02:50:10.173Z,93.38
2022-08-23T02:51:10.133Z,93.48
2022-08-23T02:52:10.138Z,93.48
2022-08-23T02:53:10.131Z,93.48
2022-08-23T02:54:10.103Z,93.79
2022-08-23T02:55:10.132Z,93.48
2022-08-23T02:56:21.607Z,94.14
2022-08-23T02:57:11.068Z,94.34
2022-08-23T02:58:10.062Z,94.04
2022-08-23T02:59:10.078Z,93.73
2022-08-23T03:00:10.047Z,93.63
2022-08-23T03:01:10.032Z,93.84
2022-08-23T03:02:10.071Z,93.84
2022-08-23T03:03:10.024Z,93.63
2022-08-23T03:04:10.004Z,93.52
2022-08-23T03:05:10.017Z,94.34
2022-08-23T03:06:25.447Z,94.14
2022-08-23T03:07:10.965Z,94.70
2022-08-23T03:08:09.951Z,95.06
2022-08-23T03:09:09.994Z,94.75
2022-08-23T03:10:09.936Z,95.17
2022-08-23T03:11:09.951Z,95.31
2022-08-23T03:12:09.907Z,95.21
2022-08-23T03:13:09.893Z,95.21
2022-08-23T03:14:09.896Z,96.07
2022-08-23T03:15:09.888Z,95.92
2022-08-23T03:16:09.871Z,94.80
2022-08-23T03:17:09.847Z,95.00
2022-08-23T03:18:09.838Z,95.10
2022-08-23T03:19:09.841Z,94.29
2022-08-23T03:20:09.814Z,94.59
2022-08-23T03:21:09.828Z,94.70
2022-08-23T03:22:09.797Z,94.70
2022-08-23T03:23:09.786Z,94.65
2022-08-23T03:24:10.559Z,94.29
2022-08-23T03:25:09.775Z,94.80
2022-08-23T03:26:09.759Z,94.70
2022-08-23T03:27:09.735Z,94.08
2022-08-23T03:28:09.730Z,93.88
2022-08-23T03:29:09.763Z,94.18
2022-08-23T03:30:17.827Z,94.08
2022-08-23T03:31:10.691Z,94.49
2022-08-23T03:32:09.688Z,94.29
2022-08-23T03:33:09.672Z,94.59
2022-08-23T03:34:09.659Z,94.80
2022-08-23T03:35:15.166Z,95.21
2022-08-23T03:36:10.735Z,94.59
2022-08-23T03:37:09.631Z,94.80
2022-08-23T03:38:09.619Z,95.10
2022-08-23T03:39:09.646Z,94.70
2022-08-23T03:40:09.691Z,94.70
2022-08-23T03:41:09.588Z,94.29
2022-08-23T03:42:09.592Z,94.18
2022-08-23T03:43:09.648Z,94.70
2022-08-23T03:44:09.556Z,94.49
2022-08-23T03:45:09.538Z,94.59
2022-08-23T03:46:09.533Z,93.88
2022-08-23T03:47:09.512Z,94.12
2022-08-23T03:48:09.512Z,94.70
2022-08-23T03:49:09.549Z,94.95
2022-08-23T03:50:09.501Z,94.49
2022-08-23T03:51:09.485Z,94.33
2022-08-23T03:52:09.463Z,94.18
2022-08-23T03:53:09.452Z,94.23
2022-08-23T03:54:09.447Z,93.88
2022-08-23T03:55:09.440Z,93.62
2022-08-23T03:56:09.418Z,93.82
2022-08-23T03:57:09.457Z,94.08
2022-08-23T03:58:09.403Z,94.39
2022-08-23T03:59:09.375Z,94.23
2022-08-23T04:00:09.370Z,94.12
2022-08-23T04:01:09.367Z,94.33
2022-08-23T04:02:09.446Z,93.88
2022-08-23T04:03:09.330Z,93.88
2022-08-23T04:04:09.327Z,94.64
2022-08-23T04:05:09.368Z,94.74
2022-08-23T04:06:09.321Z,93.71
2022-08-23T04:07:09.295Z,93.41
2022-08-23T04:08:09.303Z,93.62
2022-08-23T04:09:09.281Z,93.41
2022-08-23T04:10:09.260Z,93.77
2022-08-23T04:11:09.321Z,93.47
2022-08-23T04:12:17.538Z,93.16
2022-08-23T04:13:10.255Z,93.92
2022-08-23T04:14:09.288Z,94.02
2022-08-23T04:15:09.212Z,93.00
2022-08-23T04:16:09.210Z,93.62
2022-08-23T04:17:09.209Z,93.92
2022-08-23T04:18:09.209Z,93.71
2022-08-23T04:19:09.163Z,93.82
2022-08-23T04:20:09.152Z,93.92
2022-08-23T04:21:09.149Z,93.92
2022-08-23T04:22:09.141Z,94.02
2022-08-23T04:23:09.130Z,94.12
2022-08-23T04:24:09.110Z,94.12
2022-08-23T04:25:29.912Z,93.51
2022-08-23T04:26:10.176Z,93.30
2022-08-23T04:27:09.100Z,93.30
2022-08-23T04:28:09.078Z,93.51
2022-08-23T04:29:09.062Z,93.77
2022-08-23T04:30:09.049Z,93.92
2022-08-23T04:31:09.029Z,94.02
2022-08-23T04:32:11.697Z,93.67
2022-08-23T04:33:11.260Z,94.23
2022-08-23T04:34:08.998Z,93.88
2022-08-23T04:35:09.033Z,93.71
2022-08-23T04:36:08.990Z,94.64
2022-08-23T04:37:09.185Z,94.12
2022-08-23T04:38:24.029Z,93.51
2022-08-23T04:39:09.946Z,92.90
2022-08-23T04:40:08.996Z,93.82
2022-08-23T04:41:11.526Z,92.79
2022-08-23T04:42:13.109Z,93.51
2022-08-23T04:43:09.900Z,93.47
2022-08-23T04:44:08.987Z,93.67
2022-08-23T04:45:08.886Z,93.88
2022-08-23T04:46:08.868Z,94.08
2022-08-23T04:47:08.873Z,93.67
2022-08-23T04:48:12.070Z,93.67
2022-08-23T04:49:08.841Z,93.00
2022-08-23T04:50:08.852Z,92.85
2022-08-23T04:51:08.813Z,92.65
2022-08-23T04:52:08.842Z,93.06
2022-08-23T04:53:08.785Z,93.77
2022-08-23T04:54:08.788Z,93.37
2022-08-23T04:55:08.776Z,93.57
2022-08-23T04:56:08.760Z,92.85
2022-08-23T04:57:08.757Z,93.88
2022-08-23T04:58:08.812Z,93.47
2022-08-23T04:59:08.722Z,93.88
2022-08-23T05:00:08.711Z,92.81
2022-08-23T05:01:08.755Z,92.55
2022-08-23T05:02:08.697Z,92.55
2022-08-23T05:03:08.700Z,92.44
2022-08-23T05:04:08.723Z,92.34
2022-08-23T05:05:08.649Z,92.55
2022-08-23T05:06:08.645Z,92.34
2022-08-23T05:07:08.637Z,92.55
2022-08-23T05:08:08.628Z,93.16
2022-08-23T05:09:08.632Z,93.37
2022-08-23T05:10:08.658Z,92.24
2022-08-23T05:11:08.668Z,92.34
2022-08-23T05:12:08.580Z,92.75
2022-08-23T05:13:08.582Z,92.75
2022-08-23T05:14:08.566Z,92.85
2022-08-23T05:15:08.545Z,92.75
2022-08-23T05:16:08.587Z,92.85
2022-08-23T05:17:08.519Z,93.26
2022-08-23T05:18:08.531Z,92.85
2022-08-23T05:19:08.524Z,93.47
2022-08-23T05:20:08.494Z,92.28
2022-08-23T05:21:08.484Z,93.92
2022-08-23T05:22:08.474Z,93.76
2022-08-23T05:23:08.469Z,94.27
2022-08-23T05:24:08.450Z,95.25
2022-08-23T05:25:09.441Z,94.74
2022-08-23T05:26:08.491Z,94.84
2022-08-23T05:27:13.015Z,93.82
2022-08-23T05:28:09.405Z,93.98
2022-08-23T05:29:08.388Z,94.33
2022-08-23T05:30:08.381Z,91.31
2022-08-23T05:31:11.542Z,89.45
2022-08-23T05:32:08.407Z,87.70
2022-08-23T05:33:08.347Z,85.77
2022-08-23T05:34:08.339Z,84.17
2022-08-23T05:35:08.327Z,83.92
2022-08-23T05:36:08.425Z,85.22
2022-08-23T05:37:08.299Z,84.94
2022-08-23T05:38:08.289Z,84.33
2022-08-23T05:39:08.280Z,83.89
2022-08-23T05:40:08.334Z,80.08
2022-08-23T05:41:08.256Z,80.15
2022-08-23T05:42:08.354Z,79.23
2022-08-23T05:43:08.246Z,78.92
2022-08-23T05:44:08.229Z,78.38
2022-08-23T05:45:08.219Z,78.48
2022-08-23T05:46:12.735Z,78.30
2022-08-23T05:47:11.058Z,78.57
2022-08-23T05:48:08.229Z,79.86
2022-08-23T05:49:08.175Z,80.15
2022-08-23T05:50:08.167Z,80.62
2022-08-23T05:51:08.153Z,80.58
2022-08-23T05:52:08.278Z,78.91
2022-08-23T05:53:08.127Z,77.32
2022-08-23T05:54:08.135Z,78.13
2022-08-23T05:55:08.146Z,79.14
2022-08-23T05:56:08.102Z,78.74
2022-08-23T05:57:08.092Z,78.88
2022-08-23T05:58:08.089Z,80.97
2022-08-23T05:59:12.593Z,80.10
2022-08-23T06:00:08.050Z,81.11
2022-08-23T06:01:08.111Z,80.84
2022-08-23T06:02:08.048Z,80.80
2022-08-23T06:03:08.026Z,80.19
2022-08-23T06:04:08.017Z,79.05
2022-08-23T06:05:07.998Z,80.11
2022-08-23T06:06:08.011Z,79.36
2022-08-23T06:07:07.989Z,78.48
2022-08-23T06:08:07.964Z,79.19
2022-08-23T06:09:07.970Z,79.12
2022-08-23T06:10:07.990Z,79.35
2022-08-23T06:11:08.936Z,76.43
2022-08-23T06:12:07.925Z,74.57
2022-08-23T06:13:07.915Z,73.73
2022-08-23T06:14:07.954Z,73.93
2022-08-23T06:15:07.912Z,76.97
2022-08-23T06:16:14.228Z,78.40
2022-08-23T06:17:08.870Z,79.00
2022-08-23T06:18:07.856Z,78.22
2022-08-23T06:19:07.850Z,78.56
2022-08-23T06:20:07.871Z,76.74
2022-08-23T06:21:07.911Z,77.04
2022-08-23T06:22:08.033Z,78.42
2022-08-23T06:23:07.806Z,76.54
2022-08-23T06:24:07.792Z,76.67
2022-08-23T06:25:09.677Z,76.70
2022-08-23T06:26:07.842Z,76.56
2022-08-23T06:27:07.774Z,78.19
2022-08-23T06:28:07.753Z,76.67
2022-08-23T06:29:07.778Z,75.55
2022-08-23T06:30:07.725Z,77.17
2022-08-23T06:31:08.808Z,75.59
2022-08-23T06:32:07.759Z,77.28
2022-08-23T06:33:07.829Z,75.92
2022-08-23T06:34:07.745Z,76.50
2022-08-23T06:35:32.895Z,72.75
2022-08-23T06:36:08.742Z,75.52
2022-08-23T06:37:07.678Z,73.69
2022-08-23T06:38:07.637Z,75.68
2022-08-23T06:39:07.643Z,73.39
2022-08-23T06:40:07.673Z,73.83
2022-08-23T06:41:07.613Z,74.44
2022-08-23T06:42:22.177Z,73.83
2022-08-23T06:43:08.709Z,74.10
2022-08-23T06:44:07.590Z,74.40
2022-08-23T06:45:07.574Z,73.93
2022-08-23T06:46:07.609Z,73.22
2022-08-23T06:47:07.609Z,74.13
2022-08-23T06:48:07.533Z,73.80
2022-08-23T06:49:07.548Z,72.85
2022-08-23T06:50:07.523Z,74.64
2022-08-23T06:51:07.510Z,73.32
2022-08-23T06:52:07.519Z,73.69
2022-08-23T06:53:10.103Z,73.63
2022-08-23T06:54:07.468Z,71.73
2022-08-23T06:55:11.745Z,70.15
2022-08-23T06:56:08.450Z,70.42
2022-08-23T06:57:07.431Z,70.29
2022-08-23T06:58:07.433Z,70.25
2022-08-23T06:59:07.416Z,72.04
2022-08-23T07:00:07.427Z,73.08
2022-08-23T07:01:14.633Z,69.15
2022-08-23T07:02:08.506Z,70.56
2022-08-23T07:03:07.411Z,71.77
2022-08-23T07:04:07.385Z,70.09
2022-08-23T07:05:07.352Z,71.91
2022-08-23T07:06:07.335Z,70.12
2022-08-23T07:07:11.292Z,70.18
2022-08-23T07:08:07.339Z,70.59
2022-08-23T07:09:07.310Z,70.18
2022-08-23T07:10:07.285Z,68.26
2022-08-23T07:11:07.281Z,68.77
2022-08-23T07:12:07.272Z,68.50
2022-08-23T07:13:07.260Z,69.14
2022-08-23T07:14:07.274Z,70.18
2022-08-23T07:15:07.235Z,71.09
2022-08-23T07:16:07.319Z,70.15
2022-08-23T07:17:07.250Z,70.45
2022-08-23T07:18:07.216Z,69.51
2022-08-23T07:19:08.260Z,70.56
2022-08-23T07:20:07.192Z,70.42
2022-08-23T07:21:07.182Z,71.53
2022-08-23T07:22:07.182Z,73.56
2022-08-23T07:23:07.181Z,73.69
2022-08-23T07:24:07.143Z,70.66
2022-08-23T07:25:07.133Z,72.28
2022-08-23T07:26:07.118Z,71.94
2022-08-23T07:27:07.387Z,71.73
2022-08-23T07:28:11.496Z,70.05
2022-08-23T07:29:07.135Z,72.68
2022-08-23T07:30:07.080Z,70.09
2022-08-23T07:31:07.066Z,69.55
2022-08-23T07:32:08.139Z,70.89
2022-08-23T07:33:07.312Z,70.53
2022-08-23T07:34:07.048Z,70.12
2022-08-23T07:35:07.034Z,70.06
2022-08-23T07:36:07.005Z,69.65
2022-08-23T07:37:15.273Z,69.55
2022-08-23T07:38:07.984Z,70.66
2022-08-23T07:39:07.005Z,67.80
2022-08-23T07:40:07.015Z,68.21
2022-08-23T07:41:06.950Z,67.23
2022-08-23T07:42:22.874Z,68.34
2022-08-23T07:43:07.932Z,70.32
2022-08-23T07:44:06.929Z,68.37
2022-08-23T07:45:06.907Z,68.77
2022-08-23T07:46:07.001Z,69.25
2022-08-23T07:47:06.898Z,69.68
2022-08-23T07:48:06.873Z,70.86
2022-08-23T07:49:06.878Z,68.37
2022-08-23T07:50:06.850Z,69.55
2022-08-23T07:51:06.840Z,70.36
2022-08-23T07:52:06.917Z,69.82
2022-08-23T07:53:06.820Z,69.45
2022-08-23T07:54:06.815Z,69.08
2022-08-23T07:55:07.002Z,69.08
2022-08-23T07:56:06.786Z,69.72
2022-08-23T07:57:06.783Z,70.83
2022-08-23T07:58:06.777Z,70.53
2022-08-23T07:59:06.762Z,70.09
2022-08-23T08:00:06.741Z,68.68
2022-08-23T08:01:06.738Z,71.60
2022-08-23T08:02:06.796Z,69.35
2022-08-23T08:03:06.805Z,68.68
2022-08-23T08:04:06.731Z,70.22
2022-08-23T08:05:06.686Z,69.25
2022-08-23T08:06:06.681Z,68.11
2022-08-23T08:07:21.341Z,67.00
2022-08-23T08:08:07.866Z,68.51
2022-08-23T08:09:06.765Z,67.03
2022-08-23T08:10:06.654Z,67.67
2022-08-23T08:11:06.650Z,69.35
2022-08-23T08:12:06.616Z,68.21
2022-08-23T08:13:06.617Z,71.10
2022-08-23T08:14:06.609Z,69.52
2022-08-23T08:15:06.631Z,67.68
2022-08-23T08:16:06.639Z,69.45
2022-08-23T08:17:06.565Z,66.91
2022-08-23T08:18:06.573Z,65.13
2022-08-23T08:19:07.669Z,65.93
2022-08-23T08:20:06.533Z,65.62
2022-08-23T08:21:06.548Z,68.54
2022-08-23T08:22:06.506Z,67.23
2022-08-23T08:23:06.501Z,69.05
2022-08-23T08:24:06.495Z,67.84
2022-08-23T08:25:06.498Z,68.41
2022-08-23T08:26:06.461Z,64.95
2022-08-23T08:27:06.475Z,67.27
2022-08-23T08:28:06.445Z,66.80
2022-08-23T08:29:06.438Z,64.72
2022-08-23T08:30:06.434Z,68.01
2022-08-23T08:31:06.427Z,65.76
2022-08-23T08:32:06.408Z,65.79
2022-08-23T08:33:06.390Z,69.38
2022-08-23T08:34:06.386Z,64.89
2022-08-23T08:35:06.374Z,64.95
2022-08-23T08:36:06.355Z,66.47
2022-08-23T08:37:06.344Z,66.74
2022-08-23T08:38:06.336Z,66.10
2022-08-23T08:39:06.530Z,66.47
2022-08-23T08:40:06.359Z,63.21
2022-08-23T08:41:06.311Z,63.62
2022-08-23T08:42:06.290Z,63.54
2022-08-23T08:43:06.281Z,64.95
2022-08-23T08:44:06.274Z,67.14
2022-08-23T08:45:06.267Z,63.56
2022-08-23T08:46:06.277Z,64.66
2022-08-23T08:47:06.246Z,64.72
2022-08-23T08:48:08.271Z,66.10
2022-08-23T08:49:07.230Z,67.98
2022-08-23T08:50:06.208Z,67.82
2022-08-23T08:51:06.196Z,66.44
2022-08-23T08:52:06.179Z,66.01
2022-08-23T08:53:06.231Z,63.31
2022-08-23T08:54:06.162Z,66.78
2022-08-23T08:55:06.149Z,62.84
2022-08-23T08:56:06.179Z,63.78
2022-08-23T08:57:06.129Z,66.58
2022-08-23T08:58:06.119Z,63.37
2022-08-23T08:59:06.117Z,64.65
2022-08-23T09:00:06.101Z,66.92
2022-08-23T09:01:06.117Z,63.89
2022-08-23T09:02:06.167Z,63.81
2022-08-23T09:03:07.142Z,63.64
2022-08-23T09:04:06.073Z,65.22
2022-08-23T09:05:06.046Z,64.48
2022-08-23T09:06:06.034Z,62.38
2022-08-23T09:07:06.077Z,63.18
2022-08-23T09:08:06.012Z,63.35
2022-08-23T09:09:06.014Z,62.95
2022-08-23T09:10:05.999Z,62.18
2022-08-23T09:11:06.532Z,64.55
2022-08-23T09:12:05.959Z,62.65
2022-08-23T09:13:05.967Z,62.88
2022-08-23T09:14:05.951Z,61.85
2022-08-23T09:15:05.952Z,62.92
2022-08-23T09:16:06.002Z,60.25
2022-08-23T09:17:05.922Z,62.95
2022-08-23T09:18:05.949Z,59.05
2022-08-23T09:19:05.892Z,62.48
2022-08-23T09:20:05.878Z,62.08
2022-08-23T09:21:05.894Z,63.25
2022-08-23T09:22:05.855Z,60.25
2022-08-23T09:23:05.868Z,63.62
2022-08-23T09:24:05.835Z,59.92
2022-08-23T09:25:05.828Z,61.81
2022-08-23T09:26:05.821Z,61.81
2022-08-23T09:27:05.827Z,59.74
2022-08-23T09:28:05.799Z,62.51
2022-08-23T09:29:05.774Z,62.11
2022-08-23T09:30:05.783Z,61.35
2022-08-23T09:31:08.364Z,60.08
2022-08-23T09:32:05.752Z,61.47
2022-08-23T09:33:05.759Z,64.98
2022-08-23T09:34:05.746Z,62.70
2022-08-23T09:35:06.238Z,63.70
2022-08-23T09:36:05.711Z,63.54
2022-08-23T09:37:05.723Z,61.84
2022-08-23T09:38:05.710Z,63.17
2022-08-23T09:39:05.672Z,61.90
2022-08-23T09:40:05.713Z,63.37
2022-08-23T09:41:05.651Z,62.90
2022-08-23T09:42:05.645Z,64.95
2022-08-23T09:43:05.685Z,62.64
2022-08-23T09:44:05.629Z,65.42
2022-08-23T09:45:05.614Z,64.69
2022-08-23T09:46:05.649Z,63.15
2022-08-23T09:47:05.621Z,60.48
2022-08-23T09:48:05.589Z,63.25
2022-08-23T09:49:05.568Z,62.81
2022-08-23T09:50:05.565Z,62.81
2022-08-23T09:51:05.577Z,63.45
2022-08-23T09:52:05.534Z,62.55
2022-08-23T09:53:05.772Z,63.12
2022-08-23T09:54:05.520Z,65.96
2022-08-23T09:55:05.505Z,63.23
2022-08-23T09:56:05.510Z,62.40
2022-08-23T09:57:05.480Z,58.54
2022-08-23T09:58:05.475Z,60.89
2022-08-23T09:59:05.479Z,61.36
2022-08-23T10:00:05.452Z,60.83
2022-08-23T10:01:05.445Z,61.66
2022-08-23T10:02:05.538Z,59.62
2022-08-23T10:03:05.417Z,60.58
2022-08-23T10:04:05.408Z,63.32
2022-08-23T10:05:05.482Z,61.22
2022-08-23T10:06:05.409Z,59.56
2022-08-23T10:07:05.378Z,58.86
2022-08-23T10:08:10.154Z,57.22
2022-08-23T10:09:06.364Z,58.39
2022-08-23T10:10:05.366Z,58.69
2022-08-23T10:11:05.334Z,58.19
2022-08-23T10:12:07.452Z,57.89
2022-08-23T10:13:05.307Z,58.49
2022-08-23T10:14:05.315Z,59.82
2022-08-23T10:15:05.286Z,58.59
2022-08-23T10:16:05.352Z,58.69
2022-08-23T10:17:05.292Z,57.85
2022-08-23T10:18:05.276Z,60.19
2022-08-23T10:19:05.245Z,60.93
2022-08-23T10:20:05.295Z,55.87
2022-08-23T10:21:05.258Z,57.29
2022-08-23T10:22:05.223Z,57.32
2022-08-23T10:23:05.318Z,58.26
2022-08-23T10:24:05.198Z,57.17
2022-08-23T10:25:05.678Z,55.74
2022-08-23T10:26:05.199Z,55.07
2022-08-23T10:27:05.197Z,56.84
2022-08-23T10:28:05.161Z,56.31
2022-08-23T10:29:05.184Z,56.16
2022-08-23T10:30:05.148Z,54.22
2022-08-23T10:31:05.174Z,55.71
2022-08-23T10:32:05.131Z,55.11
2022-08-23T10:33:05.100Z,54.61
2022-08-23T10:34:05.098Z,57.39
2022-08-23T10:35:05.108Z,56.29
2022-08-23T10:36:05.102Z,58.48
2022-08-23T10:37:05.071Z,55.16
2022-08-23T10:38:05.062Z,56.31
2022-08-23T10:39:05.047Z,58.88
2022-08-23T10:40:05.054Z,54.39
2022-08-23T10:41:05.041Z,55.26
2022-08-23T10:42:05.040Z,56.76
2022-08-23T10:43:05.004Z,55.73
2022-08-23T10:44:05.051Z,55.54
2022-08-23T10:45:04.975Z,55.21
2022-08-23T10:46:05.011Z,55.73
2022-08-23T10:47:04.955Z,52.94
2022-08-23T10:48:04.974Z,54.06
2022-08-23T10:49:04.941Z,52.59
2022-08-23T10:50:04.921Z,55.09
2022-08-23T10:51:04.909Z,55.09
2022-08-23T10:52:04.917Z,54.66
2022-08-23T10:53:04.909Z,54.57
2022-08-23T10:54:04.890Z,53.39
2022-08-23T10:55:04.875Z,52.49
2022-08-23T10:56:04.851Z,55.69
2022-08-23T10:57:04.848Z,54.46
2022-08-23T10:58:04.844Z,54.46
2022-08-23T10:59:04.827Z,52.49
2022-08-23T11:00:04.812Z,55.69
2022-08-23T11:01:04.847Z,54.96
2022-08-23T11:02:04.802Z,52.99
2022-08-23T11:03:04.907Z,55.19
2022-08-23T11:04:04.814Z,52.02
2022-08-23T11:05:04.763Z,53.92
2022-08-23T11:06:04.747Z,53.81
2022-08-23T11:07:04.740Z,53.31
2022-08-23T11:08:04.713Z,54.29
2022-08-23T11:09:04.825Z,52.14
2022-08-23T11:10:04.696Z,53.77
2022-08-23T11:11:04.682Z,56.01
2022-08-23T11:12:06.100Z,56.56
2022-08-23T11:13:05.683Z,57.53
2022-08-23T11:14:04.659Z,54.31
2022-08-23T11:15:04.671Z,53.41
2022-08-23T11:16:04.680Z,54.04
2022-08-23T11:17:04.625Z,54.34
2022-08-23T11:18:04.618Z,55.83
2022-08-23T11:19:04.611Z,54.04
2022-08-23T11:20:04.590Z,54.34
2022-08-23T11:21:04.587Z,53.54
2022-08-23T11:22:04.575Z,52.07
2022-08-23T11:23:04.574Z,53.36
2022-08-23T11:24:04.644Z,51.97
2022-08-23T11:25:04.532Z,53.79
2022-08-23T11:26:04.560Z,52.69
2022-08-23T11:27:06.720Z,52.22
2022-08-23T11:28:04.498Z,54.41
2022-08-23T11:29:04.491Z,55.96
2022-08-23T11:30:04.505Z,55.73
2022-08-23T11:31:04.553Z,52.00
2022-08-23T11:32:04.484Z,55.56
2022-08-23T11:33:04.439Z,53.04
2022-08-23T11:34:04.446Z,51.79
2022-08-23T11:35:04.445Z,55.54
2022-08-23T11:36:04.420Z,53.52
2022-08-23T11:37:04.409Z,53.94
2022-08-23T11:38:04.903Z,52.22
2022-08-23T11:39:04.378Z,52.02
2022-08-23T11:40:04.446Z,51.97
2022-08-23T11:41:04.365Z,51.84
2022-08-23T11:42:04.424Z,52.55
2022-08-23T11:43:04.327Z,55.61
2022-08-23T11:44:04.347Z,53.78
2022-08-23T11:45:04.304Z,50.43
2022-08-23T11:46:04.340Z,52.12
2022-08-23T11:47:04.289Z,50.35
2022-08-23T11:48:04.276Z,53.81
2022-08-23T11:49:04.281Z,54.68
2022-08-23T11:50:04.260Z,53.59
2022-08-23T11:51:04.267Z,52.99
2022-08-23T11:52:04.222Z,54.38
2022-08-23T11:53:04.230Z,50.68
2022-08-23T11:54:04.283Z,50.00
2022-08-23T11:55:04.204Z,53.02
2022-08-23T11:56:04.195Z,52.22
2022-08-23T11:57:04.200Z,51.92
2022-08-23T11:58:04.201Z,51.92
2022-08-23T11:59:08.520Z,51.84
2022-08-23T12:00:04.250Z,54.91
2022-08-23T12:01:04.126Z,51.89
2022-08-23T12:02:04.138Z,52.19
2022-08-23T12:03:04.272Z,51.87
2022-08-23T12:04:04.207Z,50.84
2022-08-23T12:05:06.977Z,54.52
2022-08-23T12:06:04.075Z,53.56
2022-08-23T12:07:04.061Z,51.67
2022-08-23T12:08:04.380Z,52.07
2022-08-23T12:09:04.050Z,51.72
2022-08-23T12:10:04.077Z,51.25
2022-08-23T12:11:05.187Z,53.41
2022-08-23T12:12:04.008Z,56.65
2022-08-23T12:13:04.002Z,52.09
2022-08-23T12:14:04.000Z,54.26
2022-08-23T12:15:03.985Z,51.29
2022-08-23T12:16:04.074Z,52.12
2022-08-23T12:17:04.266Z,53.22
2022-08-23T12:18:04.261Z,51.72
2022-08-23T12:19:03.939Z,52.62
2022-08-23T12:20:03.936Z,52.14
2022-08-23T12:21:03.925Z,51.25
2022-08-23T12:22:03.968Z,51.84
2022-08-23T12:23:03.931Z,49.87
2022-08-23T12:24:03.928Z,51.95
2022-08-23T12:25:03.865Z,51.82
2022-08-23T12:26:03.870Z,51.82
2022-08-23T12:27:03.850Z,53.04
2022-08-23T12:28:03.824Z,53.69
2022-08-23T12:29:03.823Z,50.50
2022-08-23T12:30:03.980Z,50.02
2022-08-23T12:31:08.163Z,50.62
2022-08-23T12:32:04.846Z,51.00
2022-08-23T12:33:03.779Z,50.00
2022-08-23T12:34:03.804Z,49.65
2022-08-23T12:35:03.757Z,50.67
2022-08-23T12:36:03.848Z,51.07
2022-08-23T12:37:06.487Z,50.37
2022-08-23T12:38:04.715Z,52.84
2022-08-23T12:39:03.714Z,49.80
2022-08-23T12:40:03.718Z,51.42
2022-08-23T12:41:03.727Z,53.19
2022-08-23T12:42:03.693Z,54.14
2022-08-23T12:43:03.858Z,52.02
2022-08-23T12:44:03.665Z,52.09
2022-08-23T12:45:03.654Z,51.79
2022-08-23T12:46:03.742Z,53.56
2022-08-23T12:47:03.681Z,51.40
2022-08-23T12:48:03.606Z,49.51
2022-08-23T12:49:03.600Z,51.20
2022-08-23T12:50:05.294Z,51.22
2022-08-23T12:51:03.589Z,51.32
2022-08-23T12:52:03.598Z,51.82